Time;durP1;ratioP1;P1;durP2;ratioP2;P2;SDS_P1;SDS_P2;PMS_P1;PMS_P2;Temp;Humidity;BMP_temperature;BMP_pressure;BME280_temperature;BME280_humidity;BME280_pressure;Samples;Min_cycle;Max_cycle;Signal;HPM_P1;HPM_P2
2023/07/08 00:00:20;;;;;;;8.00;7.30;;;;;;;;;;10219472;28;20049;-72
2023/07/08 00:05:18;;;;;;;9.18;8.07;;;;;;;;;;10213571;28;20071;-72
2023/07/08 00:10:16;;;;;;;8.13;7.32;;;;;;;;;;10220772;28;20052;-72
2023/07/08 00:15:12;;;;;;;12.57;9.10;;;;;;;;;;10211051;28;20080;-72
2023/07/08 00:20:17;;;;;;;8.20;7.45;;;;;;;;;;10219083;28;20389;-72
2023/07/08 00:25:16;;;;;;;8.80;7.85;;;;;;;;;;10226152;28;20049;-72
2023/07/08 00:30:21;;;;;;;9.57;8.40;;;;;;;;;;10216848;28;20060;-72
2023/07/08 00:35:18;;;;;;;8.35;7.40;;;;;;;;;;10226692;28;20055;-72
2023/07/08 00:40:15;;;;;;;10.98;8.07;;;;;;;;;;10220565;28;20046;-73
2023/07/08 00:45:17;;;;;;;9.23;8.18;;;;;;;;;;10221137;28;20598;-72
2023/07/08 00:50:14;;;;;;;;;;;;;;;;;;10229731;28;20072;-72
2023/07/08 00:55:11;;;;;;;10.63;8.50;;;;;;;;;;10219736;28;19971;-72
2023/07/08 01:00:11;;;;;;;9.45;8.60;;;;;;;;;;10229442;28;20076;-72
2023/07/08 01:05:10;;;;;;;9.80;8.88;;;;;;;;;;10217615;28;20049;-72
2023/07/08 01:10:12;;;;;;;13.30;8.60;;;;;;;;;;10217378;28;20523;-72
2023/07/08 01:15:09;;;;;;;11.20;9.40;;;;;;;;;;10218407;28;20069;-72
2023/07/08 01:20:06;;;;;;;9.18;8.15;;;;;;;;;;10226128;28;20099;-72
2023/07/08 01:25:03;;;;;;;9.75;8.85;;;;;;;;;;10219350;28;20093;-72
2023/07/08 01:30:01;;;;;;;10.00;9.00;;;;;;;;;;10219885;28;20529;-73
2023/07/08 01:35:01;;;;;;;10.60;9.10;;;;;;;;;;10232365;28;20053;-72
2023/07/08 01:39:57;;;;;;;11.25;9.18;;;;;;;;;;10216611;28;20491;-73
2023/07/08 01:44:53;;;;;;;9.35;8.52;;;;;;;;;;10222138;28;20550;-73
2023/07/08 01:49:49;;;;;;;9.85;8.85;;;;;;;;;;10229023;28;20041;-72
2023/07/08 01:54:54;;;;;;;9.65;8.60;;;;;;;;;;10229217;28;20076;-73
2023/07/08 01:59:50;;;;;;;9.50;8.60;;;;;;;;;;10219956;28;20076;-72
2023/07/08 02:04:46;;;;;;;9.75;8.75;;;;;;;;;;10226803;28;20073;-73
2023/07/08 02:09:42;;;;;;;10.25;9.25;;;;;;;;;;10229354;28;20049;-72
2023/07/08 02:14:39;;;;;;;9.98;9.00;;;;;;;;;;10226661;28;20057;-73
2023/07/08 02:19:35;;;;;;;10.85;9.55;;;;;;;;;;10208635;28;20049;-72
2023/07/08 02:24:31;;;;;;;10.50;9.63;;;;;;;;;;10213414;28;20557;-72
2023/07/08 02:29:28;;;;;;;11.07;9.98;;;;;;;;;;10222161;28;20061;-72
2023/07/08 02:34:24;;;;;;;10.18;9.27;;;;;;;;;;10215707;28;20653;-73
2023/07/08 02:39:20;;;;;;;12.15;10.05;;;;;;;;;;10223440;28;20134;-73
2023/07/08 02:44:17;;;;;;;10.88;9.98;;;;;;;;;;10217198;28;20034;-72
2023/07/08 02:49:13;;;;;;;11.50;10.25;;;;;;;;;;10212503;28;20093;-73
2023/07/08 02:54:09;;;;;;;11.32;10.32;;;;;;;;;;10211299;28;20104;-73
2023/07/08 02:59:06;;;;;;;11.63;9.65;;;;;;;;;;10221118;28;20111;-72
2023/07/08 03:04:03;;;;;;;11.40;10.38;;;;;;;;;;10214454;28;20041;-73
2023/07/08 03:08:59;;;;;;;11.00;9.85;;;;;;;;;;10208307;28;20219;-72
2023/07/08 03:13:55;;;;;;;11.20;10.20;;;;;;;;;;10207125;28;20042;-72
2023/07/08 03:18:52;;;;;;;11.75;10.55;;;;;;;;;;10209253;28;20048;-72
2023/07/08 03:23:49;;;;;;;13.18;11.35;;;;;;;;;;10214008;28;20064;-73
2023/07/08 03:28:46;;;;;;;11.35;10.18;;;;;;;;;;10217387;28;20087;-72
2023/07/08 03:33:44;;;;;;;12.45;10.57;;;;;;;;;;10223255;28;20057;-72
2023/07/08 03:38:41;;;;;;;11.15;9.90;;;;;;;;;;10216771;28;20075;-72
2023/07/08 03:43:41;;;;;;;11.68;10.50;;;;;;;;;;10205407;28;20048;-72
2023/07/08 03:48:37;;;;;;;10.55;9.75;;;;;;;;;;10209198;28;20068;-72
2023/07/08 03:53:34;;;;;;;12.07;10.88;;;;;;;;;;10206283;28;20100;-72
2023/07/08 03:58:30;;;;;;;10.63;9.60;;;;;;;;;;10214390;28;20108;-72
2023/07/08 04:03:26;;;;;;;10.95;9.95;;;;;;;;;;10223760;28;20084;-71
2023/07/08 04:08:22;;;;;;;11.13;10.13;;;;;;;;;;10228785;28;20662;-72
2023/07/08 04:13:19;;;;;;;10.25;9.25;;;;;;;;;;10229447;28;20514;-73
2023/07/08 04:18:15;;;;;;;10.60;9.60;;;;;;;;;;10220545;28;20041;-72
2023/07/08 04:23:11;;;;;;;10.90;9.80;;;;;;;;;;10218764;28;20057;-72
2023/07/08 04:28:08;;;;;;;11.45;10.50;;;;;;;;;;10226310;28;20495;-72
2023/07/08 04:33:04;;;;;;;10.43;9.43;;;;;;;;;;10217376;28;20045;-72
2023/07/08 04:38:01;;;;;;;11.40;10.02;;;;;;;;;;10224236;28;20136;-72
2023/07/08 04:42:59;;;;;;;9.73;8.93;;;;;;;;;;10221635;28;20065;-69
2023/07/08 04:47:56;;;;;;;10.18;9.38;;;;;;;;;;10232034;28;20069;-69
2023/07/08 04:52:52;;;;;;;10.20;9.30;;;;;;;;;;10212419;28;20064;-68
2023/07/08 04:57:48;;;;;;;11.43;10.43;;;;;;;;;;10228634;28;20046;-69
2023/07/08 05:02:45;;;;;;;12.23;11.02;;;;;;;;;;10224813;28;20037;-69
2023/07/08 05:07:41;;;;;;;11.60;10.57;;;;;;;;;;10227848;28;20622;-69
2023/07/08 05:12:38;;;;;;;11.98;10.77;;;;;;;;;;10223708;28;20099;-69
2023/07/08 05:17:37;;;;;;;10.50;9.70;;;;;;;;;;10221355;28;20100;-69
2023/07/08 05:22:34;;;;;;;11.07;9.80;;;;;;;;;;10214289;28;20061;-69
2023/07/08 05:27:33;;;;;;;9.20;8.43;;;;;;;;;;10222839;28;20100;-69
2023/07/08 05:32:29;;;;;;;9.77;8.98;;;;;;;;;;10223194;28;20131;-69
2023/07/08 05:37:28;;;;;;;9.68;8.57;;;;;;;;;;10210485;28;20073;-69
2023/07/08 05:42:24;;;;;;;9.35;8.55;;;;;;;;;;10219394;28;20050;-69
2023/07/08 05:47:21;;;;;;;8.45;7.75;;;;;;;;;;10226165;28;20049;-69
2023/07/08 05:52:17;;;;;;;8.63;7.85;;;;;;;;;;10220795;28;20713;-69
2023/07/08 05:57:14;;;;;;;9.25;8.32;;;;;;;;;;10220696;28;20042;-69
2023/07/08 06:02:11;;;;;;;10.65;8.10;;;;;;;;;;10214270;28;20518;-69
2023/07/08 06:07:07;;;;;;;13.55;8.25;;;;;;;;;;10221734;28;20458;-69
2023/07/08 06:12:04;;;;;;;8.80;8.00;;;;;;;;;;10212789;28;20103;-68
2023/07/08 06:17:00;;;;;;;8.70;7.80;;;;;;;;;;10221014;28;20096;-69
2023/07/08 06:21:57;;;;;;;8.38;7.57;;;;;;;;;;10222406;28;20053;-68
2023/07/08 06:27:14;;;;;;;9.93;8.20;;;;;;;;;;10218094;28;20073;-69
2023/07/08 06:32:10;;;;;;;7.93;7.22;;;;;;;;;;10222359;28;20597;-69
2023/07/08 06:37:06;;;;;;;7.88;7.13;;;;;;;;;;10221590;28;20037;-69
2023/07/08 06:42:03;;;;;;;9.15;8.25;;;;;;;;;;10219759;28;20045;-69
2023/07/08 06:47:00;;;;;;;8.40;7.70;;;;;;;;;;10218392;28;20099;-69
2023/07/08 06:51:59;;;;;;;8.85;8.10;;;;;;;;;;10219158;28;20054;-70
2023/07/08 06:56:56;;;;;;;8.57;7.78;;;;;;;;;;10221370;28;20053;-70
2023/07/08 07:01:52;;;;;;;8.07;7.38;;;;;;;;;;10220268;28;20128;-70
2023/07/08 07:06:48;;;;;;;10.10;9.10;;;;;;;;;;10228080;28;20056;-69
2023/07/08 07:11:44;;;;;;;8.60;7.72;;;;;;;;;;10213560;28;20392;-70
2023/07/08 07:16:42;;;;;;;8.27;7.47;;;;;;;;;;10221860;28;20065;-70
2023/07/08 07:21:57;;;;;;;9.52;8.63;;;;;;;;;;10218572;28;20124;-70
2023/07/08 07:26:53;;;;;;;8.48;7.68;;;;;;;;;;10217938;28;20871;-69
2023/07/08 07:31:51;;;;;;;8.60;7.80;;;;;;;;;;10211571;28;20045;-70
2023/07/08 07:36:47;;;;;;;8.80;8.00;;;;;;;;;;10220900;28;20037;-69
2023/07/08 07:41:44;;;;;;;8.88;8.02;;;;;;;;;;10209267;28;20096;-70
2023/07/08 07:46:40;;;;;;;9.40;8.50;;;;;;;;;;10223039;28;20052;-70
2023/07/08 07:51:37;;;;;;;8.75;7.82;;;;;;;;;;10232705;28;20846;-70
2023/07/08 07:56:33;;;;;;;8.57;7.85;;;;;;;;;;10223067;28;20096;-70
2023/07/08 08:01:29;;;;;;;8.98;8.27;;;;;;;;;;10216629;28;20143;-70
2023/07/08 08:06:26;;;;;;;7.75;7.07;;;;;;;;;;10231569;28;20045;-70
2023/07/08 08:11:22;;;;;;;9.00;8.20;;;;;;;;;;10219261;28;20042;-70
2023/07/08 08:16:21;;;;;;;11.13;7.43;;;;;;;;;;10220328;28;20073;-70
2023/07/08 08:21:17;;;;;;;8.07;7.38;;;;;;;;;;10223346;28;20128;-70
2023/07/08 08:26:16;;;;;;;8.20;7.55;;;;;;;;;;10220824;28;20072;-70
2023/07/08 08:31:12;;;;;;;9.57;6.90;;;;;;;;;;10222209;28;20397;-70
2023/07/08 08:36:08;;;;;;;7.60;7.00;;;;;;;;;;10218501;28;20060;-69
2023/07/08 08:41:15;;;;;;;8.90;7.95;;;;;;;;;;10216748;28;20725;-69
2023/07/08 08:46:19;;;;;;;8.85;8.15;;;;;;;;;;10225777;28;20492;-68
2023/07/08 08:51:15;;;;;;;10.15;9.15;;;;;;;;;;10223850;28;20045;-69
2023/07/08 08:56:28;;;;;;;8.02;7.22;;;;;;;;;;10221993;28;20057;-69
2023/07/08 09:01:25;;;;;;;7.95;7.25;;;;;;;;;;10218965;28;20073;-69
2023/07/08 09:06:24;;;;;;;8.60;7.80;;;;;;;;;;10215716;28;20053;-69
2023/07/08 09:11:43;;;;;;;8.00;7.30;;;;;;;;;;10223639;28;20489;-69
2023/07/08 09:16:42;;;;;;;10.00;9.00;;;;;;;;;;10222933;28;20049;-69
2023/07/08 09:21:47;;;;;;;8.07;7.30;;;;;;;;;;10216709;28;20044;-69
2023/07/08 09:26:44;;;;;;;8.80;7.65;;;;;;;;;;10217152;28;20045;-69
2023/07/08 09:31:42;;;;;;;8.20;7.50;;;;;;;;;;10227545;28;20045;-69
2023/07/08 09:36:40;;;;;;;9.45;8.65;;;;;;;;;;10220045;28;20527;-69
2023/07/08 09:41:38;;;;;;;11.80;9.30;;;;;;;;;;10219901;28;20053;-69
2023/07/08 09:46:37;;;;;;;8.05;7.35;;;;;;;;;;10210815;28;20046;-69
2023/07/08 09:51:34;;;;;;;7.75;7.05;;;;;;;;;;10216710;28;20112;-69
2023/07/08 09:56:30;;;;;;;10.32;8.95;;;;;;;;;;10220750;28;20099;-69
2023/07/08 10:01:28;;;;;;;8.25;6.60;;;;;;;;;;10210833;28;20107;-69
2023/07/08 10:06:26;;;;;;;8.50;7.63;;;;;;;;;;10227133;28;20047;-69
2023/07/08 10:11:26;;;;;;;6.63;6.00;;;;;;;;;;10219782;28;20045;-69
2023/07/08 10:16:27;;;;;;;8.50;7.70;;;;;;;;;;10214599;28;20046;-70
2023/07/08 10:21:41;;;;;;;9.87;8.97;;;;;;;;;;10210232;28;20042;-69
2023/07/08 10:26:38;;;;;;;7.13;6.53;;;;;;;;;;10214796;28;20103;-69
2023/07/08 10:31:41;;;;;;;7.55;6.85;;;;;;;;;;10214000;28;20045;-69
2023/07/08 10:36:56;;;;;;;8.10;7.25;;;;;;;;;;10218429;28;20812;-69
2023/07/08 10:42:10;;;;;;;7.68;6.97;;;;;;;;;;10219425;28;20064;-70
2023/07/08 10:47:31;;;;;;;7.43;6.72;;;;;;;;;;10220396;28;20053;-69
2023/07/08 10:52:37;;;;;;;7.32;6.72;;;;;;;;;;10203886;28;20559;-69
2023/07/08 10:57:38;;;;;;;7.78;7.07;;;;;;;;;;10214232;28;20045;-69
2023/07/08 11:03:02;;;;;;;8.60;7.80;;;;;;;;;;10213977;28;20053;-69
2023/07/08 11:08:01;;;;;;;7.47;6.88;;;;;;;;;;10222951;28;20072;-69
2023/07/08 11:13:12;;;;;;;7.97;7.10;;;;;;;;;;10224570;28;20506;-69
2023/07/08 11:18:15;;;;;;;7.38;6.68;;;;;;;;;;10211580;28;20127;-69
2023/07/08 11:23:23;;;;;;;8.02;7.22;;;;;;;;;;10209836;28;20137;-69
2023/07/08 11:28:21;;;;;;;7.95;7.22;;;;;;;;;;10218265;28;20072;-69
2023/07/08 11:33:23;;;;;;;8.13;7.35;;;;;;;;;;10218823;28;20447;-69
2023/07/08 11:38:20;;;;;;;8.10;7.40;;;;;;;;;;10216894;28;20416;-69
2023/07/08 11:43:16;;;;;;;7.60;6.72;;;;;;;;;;10225459;28;20651;-69
2023/07/08 11:48:15;;;;;;;7.50;6.80;;;;;;;;;;10215337;28;20120;-69
2023/07/08 11:53:30;;;;;;;7.68;6.88;;;;;;;;;;10220908;28;20130;-69
2023/07/08 11:58:28;;;;;;;8.05;7.30;;;;;;;;;;10217237;28;20057;-69
2023/07/08 12:03:31;;;;;;;7.38;6.68;;;;;;;;;;10209709;28;20065;-69
2023/07/08 12:08:33;;;;;;;7.60;7.00;;;;;;;;;;10205600;28;20566;-69
2023/07/08 12:13:30;;;;;;;6.85;6.25;;;;;;;;;;10218004;28;20050;-69
2023/07/08 12:18:30;;;;;;;7.32;6.72;;;;;;;;;;10218424;28;20400;-69
2023/07/08 12:23:27;;;;;;;7.88;7.07;;;;;;;;;;10216739;28;20048;-69
2023/07/08 12:28:24;;;;;;;7.10;6.50;;;;;;;;;;10215644;28;20698;-69
2023/07/08 12:33:33;;;;;;;7.20;6.50;;;;;;;;;;10228575;28;20045;-68
2023/07/08 12:38:32;;;;;;;7.15;6.55;;;;;;;;;;10219239;28;20049;-68
2023/07/08 12:43:29;;;;;;;7.70;7.00;;;;;;;;;;10231502;28;20038;-69
2023/07/08 12:48:25;;;;;;;6.93;6.30;;;;;;;;;;10223987;28;20042;-69
2023/07/08 12:53:21;;;;;;;7.47;6.30;;;;;;;;;;10226890;28;20875;-69
2023/07/08 12:58:25;;;;;;;7.07;6.40;;;;;;;;;;10217878;28;20427;-69
2023/07/08 13:03:24;;;;;;;6.93;6.32;;;;;;;;;;10215167;28;20530;-69
2023/07/08 13:08:22;;;;;;;7.38;6.40;;;;;;;;;;10227033;28;20077;-69
2023/07/08 13:13:21;;;;;;;6.97;6.18;;;;;;;;;;10219761;28;20128;-69
2023/07/08 13:18:19;;;;;;;7.45;6.85;;;;;;;;;;10223443;28;20057;-69
2023/07/08 13:23:15;;;;;;;7.70;7.00;;;;;;;;;;10223467;28;20095;-69
2023/07/08 13:28:32;;;;;;;6.88;6.32;;;;;;;;;;10220761;28;20054;-69
2023/07/08 13:33:29;;;;;;;6.78;6.20;;;;;;;;;;10213405;28;20038;-69
2023/07/08 13:38:31;;;;;;;8.82;6.30;;;;;;;;;;10211549;28;20045;-69
2023/07/08 13:43:29;;;;;;;6.95;6.40;;;;;;;;;;10219417;28;20033;-69
2023/07/08 13:48:38;;;;;;;7.05;6.20;;;;;;;;;;10221296;28;20168;-70
2023/07/08 13:53:40;;;;;;;7.40;6.78;;;;;;;;;;10226852;28;20128;-69
2023/07/08 13:58:41;;;;;;;7.55;6.50;;;;;;;;;;10214614;28;20053;-70
2023/07/08 14:03:38;;;;;;;7.50;6.80;;;;;;;;;;10215943;28;20037;-69
2023/07/08 14:08:34;;;;;;;8.02;6.55;;;;;;;;;;10212444;28;20048;-70
2023/07/08 14:13:30;;;;;;;6.50;5.90;;;;;;;;;;10214796;28;20084;-69
2023/07/08 14:18:28;;;;;;;8.50;7.70;;;;;;;;;;10211749;28;20053;-69
2023/07/08 14:23:24;;;;;;;7.60;6.82;;;;;;;;;;10214026;28;20459;-70
2023/07/08 14:28:20;;;;;;;8.05;7.35;;;;;;;;;;10219599;28;20068;-69
2023/07/08 14:33:17;;;;;;;6.63;6.10;;;;;;;;;;10215399;28;20084;-69
2023/07/08 14:38:13;;;;;;;8.52;6.95;;;;;;;;;;10217212;28;20076;-70
2023/07/08 14:43:24;;;;;;;7.50;6.80;;;;;;;;;;10218742;28;20046;-70
2023/07/08 14:48:20;;;;;;;7.90;6.75;;;;;;;;;;10210052;28;20455;-70
2023/07/08 14:53:18;;;;;;;7.07;6.47;;;;;;;;;;10217165;28;20073;-70
2023/07/08 14:58:22;;;;;;;7.15;6.55;;;;;;;;;;10218091;28;20107;-70
2023/07/08 15:03:19;;;;;;;7.30;6.70;;;;;;;;;;10220546;28;20042;-69
2023/07/08 15:08:15;;;;;;;7.28;6.68;;;;;;;;;;10210807;28;20072;-70
2023/07/08 15:13:12;;;;;;;7.07;6.38;;;;;;;;;;10210504;28;20463;-69
2023/07/08 15:18:12;;;;;;;7.32;6.72;;;;;;;;;;10213563;28;20061;-70
2023/07/08 15:23:12;;;;;;;7.05;6.40;;;;;;;;;;10215457;28;20152;-69
2023/07/08 15:28:19;;;;;;;7.75;7.00;;;;;;;;;;10220841;28;20064;-69
2023/07/08 15:33:15;;;;;;;7.55;6.85;;;;;;;;;;10219984;28;20107;-70
2023/07/08 15:38:12;;;;;;;9.35;7.88;;;;;;;;;;10220412;28;20076;-70
2023/07/08 15:43:11;;;;;;;7.22;6.60;;;;;;;;;;10225354;28;20148;-69
2023/07/08 15:48:14;;;;;;;7.00;6.38;;;;;;;;;;10220190;28;20049;-69
2023/07/08 15:53:10;;;;;;;9.07;7.35;;;;;;;;;;10210019;28;20050;-70
2023/07/08 15:58:27;;;;;;;6.80;6.20;;;;;;;;;;10220121;28;20052;-70
2023/07/08 16:03:30;;;;;;;7.78;6.97;;;;;;;;;;10228664;28;20096;-70
2023/07/08 16:08:27;;;;;;;7.70;7.00;;;;;;;;;;10215569;28;20120;-70
2023/07/08 16:13:25;;;;;;;7.97;7.13;;;;;;;;;;10226757;28;20057;-69
2023/07/08 16:18:22;;;;;;;7.28;6.53;;;;;;;;;;10222708;28;20057;-70
2023/07/08 16:23:18;;;;;;;7.85;7.05;;;;;;;;;;10225583;28;20595;-70
2023/07/08 16:28:17;;;;;;;9.25;6.88;;;;;;;;;;10224964;28;20507;-70
2023/07/08 16:33:17;;;;;;;7.63;6.93;;;;;;;;;;10213752;28;20061;-69
2023/07/08 16:38:14;;;;;;;11.45;7.07;;;;;;;;;;10233254;28;20061;-70
2023/07/08 16:43:19;;;;;;;7.35;6.60;;;;;;;;;;10213007;28;20121;-70
2023/07/08 16:48:20;;;;;;;7.03;6.28;;;;;;;;;;10220439;28;20042;-70
2023/07/08 16:53:16;;;;;;;7.20;6.55;;;;;;;;;;10227647;28;20073;-70
2023/07/08 16:58:13;;;;;;;7.22;6.50;;;;;;;;;;10215381;28;20092;-70
2023/07/08 17:03:10;;;;;;;7.22;6.53;;;;;;;;;;10214648;28;20060;-70
2023/07/08 17:08:14;;;;;;;7.13;6.32;;;;;;;;;;10231118;28;20061;-70
2023/07/08 17:13:10;;;;;;;7.40;6.20;;;;;;;;;;10218206;28;20076;-69
2023/07/08 17:18:11;;;;;;;7.72;6.30;;;;;;;;;;10211421;28;20060;-70
2023/07/08 17:23:10;;;;;;;7.70;6.45;;;;;;;;;;10218309;28;20542;-69
2023/07/08 17:28:07;;;;;;;7.10;6.50;;;;;;;;;;10217574;28;20049;-69
2023/07/08 17:33:03;;;;;;;7.22;6.00;;;;;;;;;;10228285;28;20046;-70
2023/07/08 17:38:00;;;;;;;7.30;6.60;;;;;;;;;;10215440;28;20415;-70
2023/07/08 17:42:56;;;;;;;6.43;5.82;;;;;;;;;;10223868;28;20507;-70
2023/07/08 17:47:52;;;;;;;6.43;5.82;;;;;;;;;;10215839;28;20063;-70
2023/07/08 17:52:50;;;;;;;8.30;6.30;;;;;;;;;;10226839;28;20044;-70
2023/07/08 17:57:48;;;;;;;7.40;5.82;;;;;;;;;;10212425;28;20111;-69
2023/07/08 18:02:45;;;;;;;7.45;5.53;;;;;;;;;;10205744;28;20073;-69
2023/07/08 18:07:41;;;;;;;7.18;5.90;;;;;;;;;;10223154;28;20049;-69
2023/07/08 18:12:38;;;;;;;6.65;6.05;;;;;;;;;;10226235;28;20068;-69
2023/07/08 18:17:36;;;;;;;6.88;5.85;;;;;;;;;;10217573;28;20045;-69
2023/07/08 18:22:32;;;;;;;7.32;6.63;;;;;;;;;;10220439;28;20092;-70
2023/07/08 18:27:28;;;;;;;7.38;6.57;;;;;;;;;;10204998;28;20037;-69
2023/07/08 18:32:24;;;;;;;6.07;5.47;;;;;;;;;;10212217;28;20092;-70
2023/07/08 18:37:21;;;;;;;6.75;5.70;;;;;;;;;;10216066;28;20100;-69
2023/07/08 18:42:17;;;;;;;6.30;5.70;;;;;;;;;;10218506;28;20489;-69
2023/07/08 18:47:13;;;;;;;6.97;6.28;;;;;;;;;;10215350;28;20052;-69
2023/07/08 18:52:10;;;;;;;6.68;5.85;;;;;;;;;;10210500;28;20093;-69
2023/07/08 18:57:08;;;;;;;7.15;6.10;;;;;;;;;;10218065;28;20053;-69
2023/07/08 19:02:17;;;;;;;6.53;5.90;;;;;;;;;;10210644;28;20111;-69
2023/07/08 19:07:13;;;;;;;6.57;5.97;;;;;;;;;;10216514;28;20176;-69
2023/07/08 19:12:09;;;;;;;6.47;5.82;;;;;;;;;;10212263;28;20440;-69
2023/07/08 19:17:07;;;;;;;6.75;5.88;;;;;;;;;;10220474;28;20077;-69
2023/07/08 19:22:03;;;;;;;7.85;6.30;;;;;;;;;;10224745;28;20052;-69
2023/07/08 19:27:00;;;;;;;7.78;5.57;;;;;;;;;;10214450;28;20457;-69
2023/07/08 19:31:56;;;;;;;7.00;5.55;;;;;;;;;;10216856;28;20053;-69
2023/07/08 19:36:54;;;;;;;6.65;5.68;;;;;;;;;;10214251;28;20401;-69
2023/07/08 19:41:51;;;;;;;7.57;5.43;;;;;;;;;;10218473;28;20046;-69
2023/07/08 19:46:47;;;;;;;6.75;5.90;;;;;;;;;;10207414;28;20421;-69
2023/07/08 19:51:43;;;;;;;7.15;6.32;;;;;;;;;;10215142;28;20100;-69
2023/07/08 19:56:40;;;;;;;12.25;6.47;;;;;;;;;;10224081;28;20052;-70
2023/07/08 20:01:36;;;;;;;6.97;6.10;;;;;;;;;;10225596;28;20041;-69
2023/07/08 20:06:32;;;;;;;8.20;6.22;;;;;;;;;;10207252;28;20557;-69
2023/07/08 20:11:29;;;;;;;8.43;6.55;;;;;;;;;;10221601;28;20064;-69
2023/07/08 20:16:26;;;;;;;9.80;6.55;;;;;;;;;;10208480;28;20041;-69
2023/07/08 20:21:23;;;;;;;6.95;6.05;;;;;;;;;;10217944;28;20586;-69
2023/07/08 20:26:25;;;;;;;8.15;6.22;;;;;;;;;;10215660;28;20109;-69
2023/07/08 20:31:22;;;;;;;10.35;6.30;;;;;;;;;;10220362;28;20053;-69
2023/07/08 20:36:20;;;;;;;7.50;6.72;;;;;;;;;;10219153;28;20053;-69
2023/07/08 20:41:16;;;;;;;8.95;6.50;;;;;;;;;;10216230;28;20049;-68
2023/07/08 20:46:20;;;;;;;9.35;6.88;;;;;;;;;;10209031;28;20045;-69
2023/07/08 20:51:16;;;;;;;7.07;6.15;;;;;;;;;;10213860;28;20057;-69
2023/07/08 20:56:17;;;;;;;8.82;6.70;;;;;;;;;;10219980;28;20136;-69
2023/07/08 21:01:13;;;;;;;6.93;6.22;;;;;;;;;;10220521;28;20092;-69
2023/07/08 21:06:20;;;;;;;9.60;6.93;;;;;;;;;;10226325;28;20092;-69
2023/07/08 21:11:16;;;;;;;8.18;6.40;;;;;;;;;;10217150;28;20041;-69
2023/07/08 21:16:14;;;;;;;11.52;6.30;;;;;;;;;;10215012;28;20053;-69
2023/07/08 21:21:10;;;;;;;8.20;7.15;;;;;;;;;;10226298;28;20056;-69
2023/07/08 21:26:22;;;;;;;9.68;6.05;;;;;;;;;;10217207;28;20052;-69
2023/07/08 21:31:19;;;;;;;7.45;6.63;;;;;;;;;;10223911;28;20049;-69
2023/07/08 21:36:23;;;;;;;8.18;6.38;;;;;;;;;;10218321;28;20179;-69
2023/07/08 21:41:20;;;;;;;8.73;6.57;;;;;;;;;;10216610;28;20112;-69
2023/07/08 21:46:16;;;;;;;7.85;6.47;;;;;;;;;;10221821;28;20168;-69
2023/07/08 21:51:25;;;;;;;7.47;6.30;;;;;;;;;;10229934;28;20056;-69
2023/07/08 21:56:22;;;;;;;11.60;6.60;;;;;;;;;;10212764;28;20042;-69
2023/07/08 22:01:20;;;;;;;7.00;6.40;;;;;;;;;;10221511;28;20037;-69
2023/07/08 22:06:17;;;;;;;10.93;6.88;;;;;;;;;;10212137;28;20055;-69
2023/07/08 22:11:28;;;;;;;12.30;6.82;;;;;;;;;;10223768;28;20045;-69
2023/07/08 22:16:25;;;;;;;7.72;6.93;;;;;;;;;;10221287;28;20049;-69
2023/07/08 22:21:29;;;;;;;7.00;6.30;;;;;;;;;;10226172;28;20046;-69
2023/07/08 22:26:26;;;;;;;8.52;6.75;;;;;;;;;;10221544;28;20047;-69
2023/07/08 22:31:29;;;;;;;7.00;6.00;;;;;;;;;;10225589;28;20049;-69
2023/07/08 22:36:26;;;;;;;7.45;6.63;;;;;;;;;;10223171;28;20053;-69
2023/07/08 22:41:22;;;;;;;7.38;6.60;;;;;;;;;;10221353;28;20041;-69
2023/07/08 22:46:18;;;;;;;8.07;6.78;;;;;;;;;;10214244;28;20053;-69
2023/07/08 22:51:16;;;;;;;7.78;6.25;;;;;;;;;;10214518;28;20057;-69
2023/07/08 22:56:16;;;;;;;7.43;6.03;;;;;;;;;;10211298;28;20049;-69
2023/07/08 23:01:12;;;;;;;7.65;6.20;;;;;;;;;;10221631;28;20128;-69
2023/07/08 23:06:10;;;;;;;8.38;5.60;;;;;;;;;;10217155;28;20084;-69
2023/07/08 23:11:11;;;;;;;8.48;5.80;;;;;;;;;;10214206;28;20084;-69
2023/07/08 23:16:13;;;;;;;6.60;6.00;;;;;;;;;;10219630;28;20057;-69
2023/07/08 23:21:09;;;;;;;;;;;;;;;;;;10208652;28;20566;-69
2023/07/08 23:26:05;;;;;;;;;;;;;;;;;;10219612;28;19929;-69
2023/07/08 23:31:02;;;;;;;;;;;;;;;;;;10216249;28;20363;-69
2023/07/08 23:35:58;;;;;;;;;;;;;;;;;;10217397;28;19920;-69
2023/07/08 23:40:56;;;;;;;;;;;;;;;;;;10214746;28;19935;-69
2023/07/08 23:45:53;;;;;;;;;;;;;;;;;;10216498;28;19921;-69
2023/07/08 23:50:49;;;;;;;;;;;;;;;;;;10222743;28;19925;-69
2023/07/08 23:55:45;;;;;;;;;;;;;;;;;;10222253;28;19925;-69
